createdAt,value
2022-08-07T00:00:07.253Z,51.04
2022-08-07T00:02:41.430Z,51.24
2022-08-07T00:05:14.789Z,51.23
2022-08-07T00:07:45.079Z,51.25
2022-08-07T00:10:26.953Z,51.45
2022-08-07T00:13:00.763Z,51.35
2022-08-07T00:15:35.889Z,51.50
2022-08-07T00:18:19.329Z,51.42
2022-08-07T00:20:50.920Z,51.36
2022-08-07T00:23:21.922Z,51.53
2022-08-07T00:26:00.125Z,51.56
2022-08-07T00:28:33.975Z,51.75
2022-08-07T00:31:12.638Z,51.85
2022-08-07T00:33:47.717Z,51.47
2022-08-07T00:36:18.188Z,51.36
2022-08-07T00:38:48.345Z,51.44
2022-08-07T00:41:27.172Z,52.22
2022-08-07T00:44:00.387Z,51.61
2022-08-07T00:46:32.983Z,51.80
2022-08-07T00:49:03.746Z,51.80
2022-08-07T00:51:57.676Z,52.08
2022-08-07T00:54:24.509Z,52.03
2022-08-07T00:56:54.843Z,51.98
2022-08-07T00:59:35.145Z,51.99
2022-08-07T01:02:14.075Z,52.10
2022-08-07T01:05:00.172Z,51.74
2022-08-07T01:07:31.140Z,52.15
2022-08-07T01:10:07.235Z,52.32
2022-08-07T01:12:53.321Z,52.38
2022-08-07T01:15:36.112Z,52.30
2022-08-07T01:18:17.168Z,52.24
2022-08-07T01:21:22.502Z,53.06
2022-08-07T01:23:54.931Z,52.53
2022-08-07T01:26:26.009Z,52.66
2022-08-07T01:28:56.981Z,52.64
2022-08-07T01:31:41.575Z,52.74
2022-08-07T01:34:12.624Z,52.75
2022-08-07T01:36:44.079Z,52.77
2022-08-07T01:39:15.608Z,53.18
2022-08-07T01:42:03.676Z,52.99
2022-08-07T01:44:37.290Z,52.88
2022-08-07T01:48:16.632Z,53.08
2022-08-07T01:49:59.258Z,52.91
2022-08-07T01:52:34.508Z,53.13
2022-08-07T01:55:06.880Z,53.46
2022-08-07T01:58:05.692Z,53.50
2022-08-07T02:00:33.046Z,53.25
2022-08-07T02:03:32.124Z,54.65
2022-08-07T02:06:30.794Z,53.41
2022-08-07T02:09:05.651Z,53.43
2022-08-07T02:12:02.903Z,53.62
2022-08-07T02:14:40.787Z,53.59
2022-08-07T02:17:27.700Z,53.67
2022-08-07T02:20:09.408Z,53.42
2022-08-07T02:22:54.915Z,53.71
2022-08-07T02:26:10.859Z,53.59
2022-08-07T02:28:24.563Z,53.72
2022-08-07T02:30:57.792Z,53.83
2022-08-07T02:33:42.038Z,53.74
2022-08-07T02:36:30.916Z,53.75
2022-08-07T02:39:16.413Z,53.83
2022-08-07T02:41:56.519Z,53.88
2022-08-07T02:44:34.660Z,53.96
2022-08-07T02:47:07.099Z,53.99
2022-08-07T02:49:57.628Z,54.04
2022-08-07T02:52:34.979Z,54.74
2022-08-07T02:55:15.448Z,54.48
2022-08-07T02:58:03.275Z,54.34
2022-08-07T03:00:35.929Z,54.22
2022-08-07T03:03:13.345Z,54.58
2022-08-07T03:05:45.113Z,54.39
2022-08-07T03:08:18.227Z,54.42
2022-08-07T03:10:58.159Z,54.62
2022-08-07T03:13:29.466Z,54.55
2022-08-07T03:16:09.983Z,54.78
2022-08-07T03:18:43.995Z,54.69
2022-08-07T03:21:18.964Z,54.63
2022-08-07T03:24:21.080Z,54.87
2022-08-07T03:26:57.913Z,54.83
2022-08-07T03:29:46.078Z,55.99
2022-08-07T03:32:23.853Z,55.07
2022-08-07T03:35:16.624Z,54.95
2022-08-07T03:37:55.336Z,55.10
2022-08-07T03:40:30.747Z,55.09
2022-08-07T03:43:13.696Z,55.28
2022-08-07T03:45:47.618Z,55.17
2022-08-07T03:48:19.161Z,55.19
2022-08-07T03:50:56.250Z,55.28
2022-08-07T03:54:00.691Z,55.52
2022-08-07T03:56:32.646Z,55.37
2022-08-07T03:59:09.898Z,55.53
2022-08-07T04:01:45.427Z,55.55
2022-08-07T04:04:17.925Z,55.66
2022-08-07T04:06:50.693Z,55.68
2022-08-07T04:09:23.209Z,55.58
2022-08-07T04:12:25.208Z,55.74
2022-08-07T04:14:49.001Z,55.55
2022-08-07T04:17:21.875Z,55.78
2022-08-07T04:19:54.992Z,55.86
2022-08-07T04:22:27.513Z,55.77
2022-08-07T04:25:01.396Z,55.83
2022-08-07T04:27:35.530Z,56.00
2022-08-07T04:30:35.649Z,56.05
2022-08-07T04:33:10.404Z,56.41
2022-08-07T04:35:50.429Z,56.37
2022-08-07T04:38:25.378Z,56.01
2022-08-07T04:40:57.017Z,56.17
2022-08-07T04:44:12.689Z,56.24
2022-08-07T04:46:40.039Z,56.70
2022-08-07T04:50:08.038Z,55.87
2022-08-07T04:52:57.651Z,56.84
2022-08-07T04:58:13.161Z,56.83
2022-08-07T04:59:18.289Z,57.24
2022-08-07T05:02:11.229Z,56.41
2022-08-07T05:05:11.584Z,56.26
2022-08-07T05:08:59.390Z,57.32
2022-08-07T05:11:58.951Z,56.70
2022-08-07T05:14:55.290Z,57.28
2022-08-07T05:17:52.262Z,56.37
2022-08-07T05:20:27.219Z,56.62
2022-08-07T05:23:02.012Z,56.59
2022-08-07T05:25:36.779Z,56.27
2022-08-07T05:28:27.523Z,56.65
2022-08-07T05:30:59.876Z,56.38
2022-08-07T05:33:35.482Z,56.32
2022-08-07T05:36:12.168Z,56.36
2022-08-07T05:39:01.140Z,56.26
2022-08-07T05:42:02.686Z,55.96
2022-08-07T05:44:37.922Z,56.48
2022-08-07T05:47:38.646Z,55.76
2022-08-07T05:50:10.828Z,55.94
2022-08-07T05:52:42.274Z,55.71
2022-08-07T05:55:12.519Z,56.25
2022-08-07T05:57:46.608Z,56.48
2022-08-07T06:00:18.096Z,56.39
2022-08-07T06:02:50.849Z,56.64
2022-08-07T06:05:25.753Z,56.73
2022-08-07T06:08:13.169Z,57.23
2022-08-07T06:10:51.267Z,56.50
2022-08-07T06:14:10.349Z,56.50
2022-08-07T06:16:16.527Z,56.66
2022-08-07T06:18:51.881Z,56.58
2022-08-07T06:22:15.203Z,56.54
2022-08-07T06:24:38.180Z,56.59
2022-08-07T06:27:07.867Z,56.31
2022-08-07T06:29:39.012Z,56.63
2022-08-07T06:32:09.372Z,56.75
2022-08-07T06:34:45.258Z,56.80
2022-08-07T06:37:17.074Z,56.72
2022-08-07T06:40:13.237Z,56.84
2022-08-07T06:42:39.990Z,56.93
2022-08-07T06:45:18.358Z,57.35
2022-08-07T06:47:58.790Z,57.02
2022-08-07T06:50:31.598Z,57.00
2022-08-07T06:53:04.171Z,57.09
2022-08-07T06:55:53.869Z,57.10
2022-08-07T06:58:28.808Z,57.29
2022-08-07T07:01:00.354Z,57.21
2022-08-07T07:03:49.089Z,57.44
2022-08-07T07:06:23.848Z,57.32
2022-08-07T07:08:58.076Z,57.50
2022-08-07T07:12:07.790Z,57.46
2022-08-07T07:14:22.306Z,57.45
2022-08-07T07:16:56.643Z,57.72
2022-08-07T07:19:55.631Z,58.55
2022-08-07T07:22:36.364Z,57.52
2022-08-07T07:26:35.523Z,57.50
2022-08-07T07:28:29.874Z,57.73
2022-08-07T07:31:21.643Z,58.35
2022-08-07T07:33:57.847Z,57.84
2022-08-07T07:36:29.673Z,57.65
2022-08-07T07:39:04.690Z,57.78
2022-08-07T07:42:08.628Z,57.46
2022-08-07T07:44:29.256Z,57.35
2022-08-07T07:47:13.985Z,56.88
2022-08-07T07:50:33.819Z,56.66
2022-08-07T07:52:41.412Z,56.53
2022-08-07T07:55:13.310Z,56.59
2022-08-07T07:57:53.217Z,56.55
2022-08-07T08:00:29.555Z,56.05
2022-08-07T08:03:08.678Z,55.30
2022-08-07T08:05:51.121Z,55.26
2022-08-07T08:08:34.463Z,54.49
2022-08-07T08:11:16.401Z,54.50
2022-08-07T08:13:53.100Z,54.43
2022-08-07T08:16:31.399Z,53.83
2022-08-07T08:19:09.644Z,54.04
2022-08-07T08:22:09.855Z,53.26
2022-08-07T08:25:09.378Z,52.75
2022-08-07T08:27:56.929Z,53.42
2022-08-07T08:30:34.599Z,53.73
2022-08-07T08:33:10.450Z,53.47
2022-08-07T08:35:50.024Z,53.39
2022-08-07T08:38:29.224Z,53.81
2022-08-07T08:41:31.439Z,52.68
2022-08-07T08:44:54.519Z,52.76
2022-08-07T08:47:52.691Z,52.20
2022-08-07T08:50:39.091Z,52.83
2022-08-07T08:53:29.431Z,51.42
2022-08-07T08:56:04.734Z,51.96
2022-08-07T08:58:58.028Z,51.28
2022-08-07T09:01:44.159Z,52.06
2022-08-07T09:04:33.813Z,51.54
2022-08-07T09:07:12.112Z,52.11
2022-08-07T09:09:56.899Z,51.41
2022-08-07T09:12:53.735Z,49.41
2022-08-07T09:16:22.202Z,51.63
2022-08-07T09:18:35.418Z,49.78
2022-08-07T09:21:33.822Z,50.60
2022-08-07T09:24:32.971Z,51.18
2022-08-07T09:27:21.067Z,51.03
2022-08-07T09:30:03.183Z,51.32
2022-08-07T09:32:51.149Z,50.00
2022-08-07T09:36:02.649Z,51.05
2022-08-07T09:38:53.720Z,49.54
2022-08-07T09:41:36.208Z,50.83
2022-08-07T09:44:46.529Z,50.82
2022-08-07T09:48:00.341Z,49.32
2022-08-07T09:50:59.519Z,48.92
2022-08-07T09:53:40.847Z,49.99
2022-08-07T09:56:43.309Z,49.13
2022-08-07T09:59:46.197Z,48.33
2022-08-07T10:02:40.288Z,48.56
2022-08-07T10:06:00.292Z,49.53
2022-08-07T10:09:05.594Z,47.10
2022-08-07T10:12:02.287Z,49.18
2022-08-07T10:15:00.651Z,45.53
2022-08-07T10:18:04.296Z,45.10
2022-08-07T10:21:20.018Z,46.10
2022-08-07T10:24:21.642Z,46.89
2022-08-07T10:27:13.354Z,47.44
2022-08-07T10:30:13.001Z,45.25
2022-08-07T10:33:19.816Z,47.34
2022-08-07T10:36:29.673Z,47.24
2022-08-07T10:39:41.263Z,45.46
2022-08-07T10:42:21.160Z,48.17
2022-08-07T10:45:48.016Z,48.46
2022-08-07T10:48:41.207Z,46.81
2022-08-07T10:51:57.359Z,47.20
2022-08-07T10:54:37.204Z,47.49
2022-08-07T10:57:34.484Z,45.92
2022-08-07T11:00:09.758Z,47.43
2022-08-07T11:03:11.359Z,46.35
2022-08-07T11:05:50.853Z,44.63
2022-08-07T11:08:53.106Z,44.34
2022-08-07T11:11:35.661Z,46.37
2022-08-07T11:14:45.196Z,43.63
2022-08-07T11:17:43.327Z,46.38
2022-08-07T11:20:42.003Z,44.50
2022-08-07T11:23:36.586Z,45.20
2022-08-07T11:26:17.761Z,46.83
2022-08-07T11:28:57.055Z,46.58
2022-08-07T11:31:37.569Z,45.95
2022-08-07T11:34:45.019Z,45.91
2022-08-07T11:37:57.756Z,46.43
2022-08-07T11:40:57.169Z,46.92
2022-08-07T11:43:54.925Z,46.11
2022-08-07T11:46:40.519Z,46.38
2022-08-07T11:49:51.171Z,46.28
2022-08-07T11:52:39.727Z,44.72
2022-08-07T11:55:18.879Z,46.01
2022-08-07T11:58:39.516Z,44.46
2022-08-07T12:02:00.605Z,45.18
2022-08-07T12:04:39.239Z,45.93
2022-08-07T12:07:20.310Z,46.25
2022-08-07T12:10:05.545Z,45.05
2022-08-07T12:12:41.400Z,45.88
2022-08-07T12:15:46.025Z,44.42
2022-08-07T12:18:31.003Z,44.19
2022-08-07T12:21:56.063Z,44.89
2022-08-07T12:24:37.813Z,44.85
2022-08-07T12:27:16.203Z,45.37
2022-08-07T12:29:53.933Z,44.50
2022-08-07T12:33:19.099Z,44.01
2022-08-07T12:35:58.171Z,45.04
2022-08-07T12:38:38.664Z,44.79
2022-08-07T12:41:14.637Z,45.45
2022-08-07T12:44:02.069Z,45.25
2022-08-07T12:47:03.146Z,43.81
2022-08-07T12:50:04.913Z,43.18
2022-08-07T12:53:17.866Z,43.72
2022-08-07T12:56:16.974Z,41.56
2022-08-07T12:58:57.217Z,44.67
2022-08-07T13:02:09.818Z,43.05
2022-08-07T13:05:01.789Z,42.30
2022-08-07T13:08:13.683Z,41.91
2022-08-07T13:10:57.307Z,41.48
2022-08-07T13:13:47.900Z,41.71
2022-08-07T13:16:51.007Z,42.34
2022-08-07T13:19:50.658Z,42.97
2022-08-07T13:22:32.407Z,42.75
2022-08-07T13:25:29.864Z,40.79
2022-08-07T13:28:13.426Z,40.82
2022-08-07T13:31:01.419Z,41.76
2022-08-07T13:34:33.179Z,39.70
2022-08-07T13:37:20.697Z,40.71
2022-08-07T13:40:36.188Z,40.67
2022-08-07T13:43:15.458Z,41.35
2022-08-07T13:46:21.798Z,38.07
2022-08-07T13:48:40.758Z,41.97
2022-08-07T13:51:27.207Z,41.67
2022-08-07T13:54:03.697Z,41.34
2022-08-07T13:56:41.313Z,41.48
2022-08-07T13:59:27.798Z,40.84
2022-08-07T14:02:10.744Z,39.30
2022-08-07T14:04:54.336Z,39.44
2022-08-07T14:07:30.771Z,39.85
2022-08-07T14:10:17.388Z,38.64
2022-08-07T14:13:10.577Z,39.48
2022-08-07T14:15:50.552Z,41.11
2022-08-07T14:18:33.065Z,39.00
2022-08-07T14:22:02.082Z,38.79
2022-08-07T14:24:27.444Z,39.34
2022-08-07T14:27:02.617Z,40.88
2022-08-07T14:30:05.164Z,40.43
2022-08-07T14:32:45.780Z,39.95
2022-08-07T14:35:43.407Z,37.82
2022-08-07T14:38:26.771Z,40.41
2022-08-07T14:44:11.597Z,39.48
2022-08-07T14:49:56.686Z,40.13
2022-08-07T14:52:28.726Z,39.54
2022-08-07T14:55:01.323Z,38.79
2022-08-07T15:00:31.161Z,37.49
2022-08-07T15:03:16.503Z,38.72
2022-08-07T15:12:01.949Z,37.58
2022-08-07T15:17:55.108Z,38.61
2022-08-07T15:20:54.743Z,39.03
2022-08-07T15:25:12.791Z,39.03
2022-08-07T15:26:28.779Z,39.09
2022-08-07T15:32:00.657Z,38.88
2022-08-07T15:34:37.986Z,37.78
2022-08-07T15:40:34.859Z,39.34
2022-08-07T15:43:53.154Z,37.74
2022-08-07T15:46:32.370Z,37.75
2022-08-07T15:49:14.544Z,38.22
2022-08-07T15:54:39.601Z,37.53
2022-08-07T15:57:28.150Z,38.77
2022-08-07T16:00:06.894Z,39.38
2022-08-07T16:02:46.738Z,38.95
2022-08-07T16:05:23.158Z,39.09
2022-08-07T16:08:31.125Z,37.20
2022-08-07T16:11:29.039Z,36.32
2022-08-07T16:14:36.137Z,36.16
2022-08-07T16:18:02.215Z,36.40
2022-08-07T16:20:33.506Z,37.60
2022-08-07T16:24:00.890Z,36.54
2022-08-07T16:26:59.307Z,36.33
2022-08-07T16:30:29.509Z,36.98
2022-08-07T16:34:01.803Z,36.75
2022-08-07T16:36:31.385Z,37.04
2022-08-07T16:39:33.720Z,36.88
2022-08-07T16:42:18.501Z,36.63
2022-08-07T16:48:09.821Z,37.45
2022-08-07T16:51:07.318Z,37.27
2022-08-07T16:54:19.147Z,37.23
2022-08-07T16:57:03.848Z,37.96
2022-08-07T16:59:46.141Z,38.43
2022-08-07T17:02:51.260Z,38.87
2022-08-07T17:06:02.168Z,38.33
2022-08-07T17:09:08.650Z,39.91
2022-08-07T17:12:01.992Z,40.22
2022-08-07T17:14:50.945Z,39.68
2022-08-07T17:17:26.999Z,39.66
2022-08-07T17:20:31.001Z,39.04
2022-08-07T17:23:54.579Z,39.78
2022-08-07T17:26:49.745Z,40.26
2022-08-07T17:30:14.245Z,40.46
2022-08-07T17:32:30.627Z,40.98
2022-08-07T17:35:50.341Z,41.08
2022-08-07T17:38:33.264Z,40.95
2022-08-07T17:42:01.121Z,41.59
2022-08-07T17:44:14.189Z,41.47
2022-08-07T17:46:53.228Z,41.60
2022-08-07T17:49:44.981Z,41.82
2022-08-07T17:52:41.402Z,41.80
2022-08-07T17:55:55.782Z,41.63
2022-08-07T17:58:30.043Z,41.63
2022-08-07T18:01:20.593Z,41.94
2022-08-07T18:04:41.601Z,42.81
2022-08-07T18:07:43.595Z,43.33
2022-08-07T18:10:32.162Z,43.10
2022-08-07T18:13:17.718Z,43.45
2022-08-07T18:16:08.411Z,43.91
2022-08-07T18:21:08.441Z,44.10
2022-08-07T18:21:58.537Z,43.42
2022-08-07T18:24:42.281Z,43.98
2022-08-07T18:27:38.740Z,44.44
2022-08-07T18:33:56.004Z,45.65
2022-08-07T18:36:53.990Z,45.81
2022-08-07T18:40:08.271Z,45.96
2022-08-07T18:43:06.510Z,46.13
2022-08-07T18:46:24.567Z,46.57
2022-08-07T18:50:31.210Z,46.61
2022-08-07T18:52:38.676Z,45.71
2022-08-07T18:55:42.964Z,47.43
2022-08-07T18:58:25.803Z,46.22
2022-08-07T19:01:05.914Z,46.81
2022-08-07T19:04:02.208Z,47.58
2022-08-07T19:06:51.387Z,46.35
2022-08-07T19:09:57.245Z,47.92
2022-08-07T19:12:57.834Z,48.25
2022-08-07T19:16:05.503Z,48.10
2022-08-07T19:18:58.682Z,47.02
2022-08-07T19:21:58.532Z,48.19
2022-08-07T19:24:50.680Z,47.71
2022-08-07T19:28:29.326Z,47.34
2022-08-07T19:31:05.817Z,47.49
2022-08-07T19:33:13.221Z,47.75
2022-08-07T19:35:53.709Z,47.90
2022-08-07T19:38:28.099Z,47.84
2022-08-07T19:41:02.792Z,47.88
2022-08-07T19:43:50.096Z,47.83
2022-08-07T19:46:29.010Z,47.57
2022-08-07T19:49:02.684Z,49.47
2022-08-07T19:51:52.392Z,47.63
2022-08-07T19:54:33.180Z,47.52
2022-08-07T19:57:59.757Z,48.32
2022-08-07T20:00:28.385Z,47.88
2022-08-07T20:03:33.826Z,48.21
2022-08-07T20:06:02.235Z,48.32
2022-08-07T20:08:34.366Z,49.60
2022-08-07T20:11:14.981Z,48.47
2022-08-07T20:13:55.289Z,48.56
2022-08-07T20:16:36.188Z,48.97
2022-08-07T20:19:11.008Z,48.60
2022-08-07T20:21:47.680Z,48.95
2022-08-07T20:24:23.294Z,49.15
2022-08-07T20:26:57.135Z,48.97
2022-08-07T20:29:47.752Z,48.94
2022-08-07T20:32:26.537Z,49.15
2022-08-07T20:35:26.095Z,50.08
2022-08-07T20:37:59.533Z,49.14
2022-08-07T20:40:34.502Z,49.35
2022-08-07T20:43:14.470Z,49.72
2022-08-07T20:46:27.011Z,49.99
2022-08-07T20:48:58.141Z,49.61
2022-08-07T20:51:50.394Z,49.88
2022-08-07T20:54:29.812Z,50.02
2022-08-07T20:57:08.218Z,50.23
2022-08-07T21:00:07.625Z,50.18
2022-08-07T21:02:55.479Z,50.42
2022-08-07T21:05:56.136Z,51.86
2022-08-07T21:08:44.654Z,51.22
2022-08-07T21:11:29.022Z,50.90
2022-08-07T21:14:33.434Z,52.46
2022-08-07T21:18:20.584Z,51.29
2022-08-07T21:20:06.131Z,51.17
2022-08-07T21:22:53.369Z,51.86
2022-08-07T21:25:29.813Z,51.15
2022-08-07T21:28:49.529Z,51.97
2022-08-07T21:32:41.990Z,51.99
2022-08-07T21:34:46.316Z,52.54
2022-08-07T21:37:59.658Z,51.53
2022-08-07T21:41:09.918Z,52.45
2022-08-07T21:44:14.318Z,52.96
2022-08-07T21:47:36.276Z,53.11
2022-08-07T21:50:14.588Z,51.50
2022-08-07T21:53:18.116Z,53.00
2022-08-07T21:55:59.590Z,51.52
2022-08-07T21:59:04.219Z,52.08
2022-08-07T22:02:10.864Z,53.01
2022-08-07T22:04:53.914Z,52.02
2022-08-07T22:07:31.652Z,52.14
2022-08-07T22:10:24.911Z,52.30
2022-08-07T22:13:03.394Z,52.70
2022-08-07T22:16:43.509Z,52.70
2022-08-07T22:18:47.554Z,53.12
2022-08-07T22:22:04.680Z,53.21
2022-08-07T22:24:32.705Z,52.62
2022-08-07T22:27:34.113Z,53.22
2022-08-07T22:30:17.188Z,52.62
2022-08-07T22:33:02.618Z,53.13
2022-08-07T22:35:43.995Z,53.49
2022-08-07T22:38:28.573Z,54.13
2022-08-07T22:41:07.521Z,53.27
2022-08-07T22:43:52.151Z,52.84
2022-08-07T22:47:05.917Z,53.48
2022-08-07T22:50:06.981Z,54.68
2022-08-07T22:52:51.494Z,53.92
2022-08-07T22:55:48.254Z,54.51
2022-08-07T22:58:42.978Z,53.71
2022-08-07T23:01:49.476Z,53.94
2022-08-07T23:04:57.757Z,53.20
2022-08-07T23:08:22.286Z,54.71
2022-08-07T23:11:27.358Z,54.73
2022-08-07T23:14:41.929Z,54.79
2022-08-07T23:17:35.850Z,54.68
2022-08-07T23:20:51.332Z,53.92
2022-08-07T23:24:05.855Z,54.97
2022-08-07T23:27:02.632Z,55.04
2022-08-07T23:30:35.622Z,54.47
2022-08-07T23:34:34.105Z,54.98
2022-08-07T23:36:29.248Z,53.80
2022-08-07T23:39:22.196Z,54.95
2022-08-07T23:42:21.588Z,55.37
2022-08-07T23:45:03.693Z,55.29
2022-08-07T23:48:04.723Z,56.83
2022-08-07T23:50:57.107Z,57.82
2022-08-07T23:53:49.768Z,56.25
2022-08-07T23:57:03.467Z,59.68
